Terminal Aerodrome Forecast
Issued by NWS

Home | Current Version | Previous Version | Text Only | Print | Product List | Glossary On
Versions: 1 2 3 4 5 6 7 8 9 10 11 12 13
583
FTUS41 KCAR 271120
TAFHUL
TAF
KHUL 271120Z 2712/2812 20007KT 6SM -SHRA OVC050
     FM271500 20008KT P6SM VCSH OVC015
     FM271900 21008KT P6SM -SHRA VCTS OVC025CB
     FM280100 21008KT P6SM VCSH OVC015
     FM280500 23005KT P6SM OVC009=

USA.gov is the U.S. government's official web portal to all federal, state and local government web resources and services.